Time;durP1;ratioP1;P1;durP2;ratioP2;P2;SDS_P1;SDS_P2;PMS_P1;PMS_P2;Temp;Humidity;BMP_temperature;BMP_pressure;BME280_temperature;BME280_humidity;BME280_pressure;Samples;Min_cycle;Max_cycle;Signal;HPM_P1;HPM_P2
2021/07/13 00:01:25;;;;;;;14.43;12.55;;;19.10;99.90;;;;;;5055829;28;20198;-74
2021/07/13 00:03:53;;;;;;;14.00;12.45;;;19.10;99.90;;;;;;5056310;28;20028;-74
2021/07/13 00:06:21;;;;;;;15.57;12.73;;;19.10;99.90;;;;;;5039318;28;20032;-74
2021/07/13 00:08:51;;;;;;;16.00;12.63;;;19.10;99.90;;;;;;5037637;28;20030;-73
2021/07/13 00:11:19;;;;;;;16.65;13.07;;;19.00;99.90;;;;;;5048855;28;20025;-72
2021/07/13 00:13:45;;;;;;;16.88;13.57;;;19.00;99.90;;;;;;5051466;28;20049;-73
2021/07/13 00:16:12;;;;;;;22.60;15.18;;;19.00;99.90;;;;;;5037774;28;20033;-73
2021/07/13 00:18:39;;;;;;;21.45;15.60;;;19.00;99.90;;;;;;5042854;28;20028;-72
2021/07/13 00:21:07;;;;;;;24.13;15.90;;;19.00;99.90;;;;;;5051007;28;20029;-73
2021/07/13 00:23:37;;;;;;;22.33;16.38;;;19.00;99.90;;;;;;5071307;28;20036;-72
2021/07/13 00:26:05;;;;;;;26.63;17.08;;;19.00;99.90;;;;;;5061895;28;20024;-73
2021/07/13 00:28:33;;;;;;;24.08;17.95;;;19.00;99.90;;;;;;5036684;28;20516;-73
2021/07/13 00:30:59;;;;;;;30.38;20.02;;;19.00;99.90;;;;;;5055426;28;20358;-73
2021/07/13 00:33:26;;;;;;;27.10;20.52;;;19.10;99.90;;;;;;5034682;28;20065;-73
2021/07/13 00:35:52;;;;;;;23.38;18.98;;;19.10;99.90;;;;;;5045212;28;20044;-74
2021/07/13 00:38:19;;;;;;;27.17;18.42;;;19.10;99.90;;;;;;5055373;28;20032;-73
2021/07/13 00:40:45;;;;;;;24.98;17.23;;;19.00;99.90;;;;;;5054698;28;20035;-74
2021/07/13 00:43:11;;;;;;;23.40;17.35;;;19.00;99.90;;;;;;5056033;28;20024;-73
2021/07/13 00:45:37;;;;;;;25.85;18.88;;;19.00;99.90;;;;;;5054390;28;20025;-73
2021/07/13 00:48:05;;;;;;;24.17;17.95;;;19.00;99.90;;;;;;5036160;28;20390;-74
2021/07/13 00:50:31;;;;;;;26.33;18.33;;;18.90;99.90;;;;;;5039351;28;20041;-74
2021/07/13 00:52:58;;;;;;;25.70;17.73;;;18.90;99.90;;;;;;5046390;28;20056;-75
2021/07/13 00:55:26;;;;;;;30.10;19.70;;;18.80;99.90;;;;;;5054772;28;20048;-74
2021/07/13 00:57:52;;;;;;;28.52;20.63;;;18.90;99.90;;;;;;5035384;28;20033;-74
2021/07/13 01:00:21;;;;;;;30.73;20.52;;;18.90;99.90;;;;;;5054539;28;20017;-75
2021/07/13 01:02:51;;;;;;;30.80;19.58;;;18.90;99.90;;;;;;5054455;28;20025;-73
2021/07/13 01:05:20;;;;;;;33.25;21.88;;;18.90;99.90;;;;;;5032179;28;20029;-74
2021/07/13 01:08:01;;;;;;;28.10;19.38;;;18.90;99.90;;;;;;5042897;28;20036;-73
2021/07/13 01:10:41;;;;;;;28.40;19.17;;;18.90;99.90;;;;;;5043991;28;20029;-73
2021/07/13 01:13:11;;;;;;;24.80;19.33;;;18.80;99.90;;;;;;5054936;28;20048;-73
2021/07/13 01:15:46;;;;;;;32.00;20.17;;;18.80;99.90;;;;;;5016919;28;20034;-73
2021/07/13 01:18:22;;;;;;;33.13;19.92;;;18.80;99.90;;;;;;5035244;28;20363;-72
2021/07/13 01:20:53;;;;;;;31.85;20.73;;;18.80;99.90;;;;;;5053112;28;20037;-74
2021/07/13 01:23:28;;;;;;;27.73;20.65;;;18.80;99.90;;;;;;5053907;28;20033;-74
2021/07/13 01:26:17;;;;;;;33.95;20.67;;;18.80;99.90;;;;;;5050993;28;20036;-73
2021/07/13 01:28:49;;;;;;;35.60;21.20;;;18.80;99.90;;;;;;5035741;28;20029;-74
2021/07/13 01:31:18;;;;;;;31.08;21.17;;;18.80;99.90;;;;;;5053439;28;20033;-73
2021/07/13 01:33:56;;;;;;;33.35;21.85;;;18.80;99.90;;;;;;5046133;28;20197;-72
2021/07/13 01:36:38;;;;;;;38.28;21.73;;;18.80;99.90;;;;;;5035808;28;20035;-73
2021/07/13 01:39:06;;;;;;;31.17;20.58;;;18.80;99.90;;;;;;5035501;28;20025;-73
2021/07/13 01:41:33;;;;;;;29.40;20.23;;;18.70;99.90;;;;;;5043085;28;20029;-74
2021/07/13 01:44:00;;;;;;;36.05;20.75;;;18.70;99.90;;;;;;5053915;28;20041;-74
2021/07/13 01:46:27;;;;;;;30.58;19.67;;;18.70;99.90;;;;;;5034609;28;20029;-74
2021/07/13 01:48:56;;;;;;;27.23;20.08;;;18.60;99.90;;;;;;5034524;28;20033;-73
2021/07/13 01:51:24;;;;;;;30.95;22.05;;;18.60;99.90;;;;;;5040678;28;20045;-73
2021/07/13 01:53:52;;;;;;;38.15;23.35;;;18.60;99.90;;;;;;5035845;28;20033;-73
2021/07/13 01:56:21;;;;;;;33.72;23.75;;;18.60;99.90;;;;;;5054169;28;20032;-73
2021/07/13 01:58:48;;;;;;;38.03;24.60;;;18.60;99.90;;;;;;5051022;28;20457;-73
2021/07/13 02:01:19;;;;;;;40.25;25.02;;;18.50;99.90;;;;;;5053828;28;20037;-73
2021/07/13 02:03:47;;;;;;;35.75;25.00;;;18.60;99.90;;;;;;5056489;28;20359;-73
2021/07/13 02:06:16;;;;;;;44.08;24.50;;;18.60;99.90;;;;;;5055147;28;20025;-73
2021/07/13 02:08:43;;;;;;;38.35;24.55;;;18.50;99.90;;;;;;5037801;28;20021;-73
2021/07/13 02:11:11;;;;;;;35.28;23.67;;;18.50;99.90;;;;;;5037333;28;20021;-73
2021/07/13 02:13:37;;;;;;;36.25;23.30;;;18.50;99.90;;;;;;5032484;28;20386;-73
2021/07/13 02:16:04;;;;;;;32.80;24.15;;;18.50;99.90;;;;;;5051849;28;20021;-72
2021/07/13 02:18:31;;;;;;;38.15;24.55;;;18.50;99.90;;;;;;5054182;28;20025;-75
2021/07/13 02:20:58;;;;;;;33.75;24.13;;;18.40;99.90;;;;;;5052696;28;20040;-73
2021/07/13 02:23:24;;;;;;;36.58;22.55;;;18.40;99.90;;;;;;5036778;28;20022;-75
2021/07/13 02:25:55;;;;;;;34.08;21.40;;;18.40;99.90;;;;;;5052740;28;20029;-75
2021/07/13 02:28:27;;;;;;;33.38;21.65;;;18.40;99.90;;;;;;5057302;28;20025;-75
2021/07/13 02:30:59;;;;;;;38.67;23.05;;;18.40;99.90;;;;;;5038220;28;20040;-76
2021/07/13 02:33:43;;;;;;;35.05;22.05;;;18.40;99.90;;;;;;5066483;28;20458;-76
2021/07/13 02:36:16;;;;;;;36.20;23.40;;;18.40;99.90;;;;;;5053638;28;20044;-76
2021/07/13 02:38:46;;;;;;;39.03;24.38;;;18.40;99.90;;;;;;5063046;28;20028;-76
2021/07/13 02:41:15;;;;;;;39.78;24.20;;;18.40;99.90;;;;;;5054383;28;20021;-76
2021/07/13 02:43:42;;;;;;;40.00;25.33;;;18.40;99.90;;;;;;5052473;28;20033;-76
2021/07/13 02:46:10;;;;;;;41.08;24.58;;;18.40;99.90;;;;;;5038764;28;20045;-74
2021/07/13 02:48:37;;;;;;;57.22;28.10;;;18.40;99.90;;;;;;5052441;28;20025;-75
2021/07/13 02:51:05;;;;;;;48.75;27.50;;;18.60;99.90;;;;;;5052318;28;20044;-75
2021/07/13 02:53:33;;;;;;;48.25;28.42;;;18.60;99.90;;;;;;5052216;28;20052;-74
2021/07/13 02:56:01;;;;;;;45.35;27.63;;;18.60;99.90;;;;;;5036012;28;20482;-75
2021/07/13 02:58:28;;;;;;;44.88;27.13;;;18.60;99.90;;;;;;5057587;28;20021;-74
2021/07/13 03:00:56;;;;;;;51.20;27.02;;;18.50;99.90;;;;;;5066805;28;20356;-76
2021/07/13 03:03:23;;;;;;;47.90;28.23;;;18.50;99.90;;;;;;5052554;28;20384;-75
2021/07/13 03:05:52;;;;;;;49.17;27.95;;;18.50;99.90;;;;;;5051793;28;20051;-77
2021/07/13 03:08:22;;;;;;;52.05;30.70;;;18.60;99.90;;;;;;5064329;28;20024;-76
2021/07/13 03:10:49;;;;;;;55.60;31.63;;;18.60;99.90;;;;;;5054035;28;20041;-75
2021/07/13 03:13:19;;;;;;;57.10;31.23;;;18.60;99.90;;;;;;5051727;28;20056;-75
2021/07/13 03:15:48;;;;;;;54.80;29.35;;;18.50;99.90;;;;;;5051665;28;20036;-74
2021/07/13 03:18:14;;;;;;;54.08;30.40;;;18.40;99.90;;;;;;5051202;28;20037;-74
2021/07/13 03:20:45;;;;;;;52.10;28.92;;;18.40;99.90;;;;;;5049480;28;20048;-72
2021/07/13 03:23:12;;;;;;;50.00;27.85;;;18.40;99.90;;;;;;5050299;28;20025;-74
2021/07/13 03:25:41;;;;;;;43.45;28.02;;;18.40;99.90;;;;;;5049839;28;20032;-74
2021/07/13 03:28:10;;;;;;;47.83;28.80;;;18.40;99.90;;;;;;5051569;28;20035;-75
2021/07/13 03:30:37;;;;;;;43.40;27.25;;;18.40;99.90;;;;;;5044246;28;20455;-75
2021/07/13 03:33:04;;;;;;;48.03;28.42;;;18.40;99.90;;;;;;5050200;28;20041;-74
2021/07/13 03:35:31;;;;;;;48.03;26.85;;;18.30;99.90;;;;;;5050567;28;20036;-74
2021/07/13 03:37:58;;;;;;;47.28;27.45;;;18.30;99.90;;;;;;5069321;28;20035;-74
2021/07/13 03:40:28;;;;;;;52.05;27.70;;;18.30;99.90;;;;;;5063136;28;20036;-74
2021/07/13 03:42:56;;;;;;;49.50;28.55;;;18.30;99.90;;;;;;5048169;28;20482;-75
2021/07/13 03:45:25;;;;;;;44.28;26.83;;;18.20;99.90;;;;;;5037201;28;20037;-74
2021/07/13 03:47:55;;;;;;;46.30;27.67;;;18.30;99.90;;;;;;5035844;28;20033;-73
2021/07/13 03:50:24;;;;;;;44.72;27.55;;;18.20;99.90;;;;;;5036585;28;20032;-74
2021/07/13 03:52:51;;;;;;;49.25;27.67;;;18.20;99.90;;;;;;5017862;28;20048;-75
2021/07/13 03:55:17;;;;;;;48.17;27.75;;;18.20;99.90;;;;;;5034904;28;20049;-74
2021/07/13 03:57:44;;;;;;;48.92;27.55;;;18.20;99.90;;;;;;5046188;28;20362;-74
2021/07/13 04:00:13;;;;;;;52.92;28.08;;;18.20;99.90;;;;;;5034455;28;20036;-74
2021/07/13 04:02:41;;;;;;;50.67;28.60;;;18.20;99.90;;;;;;5035674;28;20072;-74
2021/07/13 04:05:09;;;;;;;47.42;27.00;;;18.20;99.90;;;;;;5035156;28;20041;-74
2021/07/13 04:07:36;;;;;;;44.53;26.40;;;18.20;99.90;;;;;;5035161;28;20029;-74
2021/07/13 04:10:11;;;;;;;46.90;27.02;;;18.20;99.90;;;;;;5035887;28;20036;-74
2021/07/13 04:12:37;;;;;;;47.42;27.95;;;18.20;99.90;;;;;;5019455;28;20443;-75
2021/07/13 04:15:06;;;;;;;47.75;28.02;;;18.20;99.90;;;;;;5066867;28;20028;-72
2021/07/13 04:17:32;;;;;;;51.83;29.27;;;18.20;99.90;;;;;;5051049;28;20092;-73
2021/07/13 04:19:58;;;;;;;51.00;28.05;;;18.20;99.90;;;;;;5055424;28;20038;-74
2021/07/13 04:22:24;;;;;;;48.92;27.48;;;18.20;99.90;;;;;;5069068;28;20032;-75
2021/07/13 04:24:50;;;;;;;50.72;29.15;;;18.10;99.90;;;;;;5046395;28;20021;-75
2021/07/13 04:27:17;;;;;;;53.55;30.67;;;18.20;99.90;;;;;;5036048;28;20025;-75
2021/07/13 04:29:43;;;;;;;46.17;26.80;;;18.10;99.90;;;;;;5034929;28;20048;-75
2021/07/13 04:32:09;;;;;;;55.08;29.25;;;18.10;99.90;;;;;;5035805;28;20053;-75
2021/07/13 04:34:36;;;;;;;52.13;29.98;;;18.10;99.90;;;;;;5018333;28;20038;-75
2021/07/13 04:37:03;;;;;;;56.35;29.63;;;18.10;99.90;;;;;;5052127;28;20208;-75
2021/07/13 04:39:29;;;;;;;56.08;29.77;;;18.10;99.90;;;;;;5040738;28;20026;-76
2021/07/13 04:41:55;;;;;;;51.67;28.42;;;18.10;99.90;;;;;;5034188;28;20048;-73
2021/07/13 04:44:21;;;;;;;55.78;30.83;;;18.10;99.90;;;;;;5034507;28;20042;-74
2021/07/13 04:46:47;;;;;;;51.13;29.92;;;18.10;99.90;;;;;;5025416;28;20044;-72
2021/07/13 04:49:14;;;;;;;51.83;29.33;;;18.10;99.90;;;;;;5034483;28;20026;-72
2021/07/13 04:51:41;;;;;;;59.03;31.25;;;18.10;99.90;;;;;;5045233;28;20036;-72
2021/07/13 04:54:07;;;;;;;68.82;32.88;;;18.10;99.90;;;;;;5044063;28;20048;-72
2021/07/13 04:56:33;;;;;;;64.32;35.35;;;18.20;99.90;;;;;;5037818;28;20040;-73
2021/07/13 04:58:59;;;;;;;65.13;35.72;;;18.20;99.90;;;;;;5048022;28;20475;-78
2021/07/13 05:01:27;;;;;;;64.78;33.38;;;18.20;99.90;;;;;;5033161;28;20045;-78
2021/07/13 05:03:54;;;;;;;61.42;34.35;;;18.20;99.90;;;;;;5031117;28;20387;-79
2021/07/13 05:06:21;;;;;;;72.05;36.28;;;18.20;99.90;;;;;;5033230;28;20042;-78
2021/07/13 05:08:47;;;;;;;70.88;36.70;;;18.20;99.90;;;;;;5040314;28;20030;-79
2021/07/13 05:11:14;;;;;;;72.75;37.45;;;18.30;99.90;;;;;;5033441;28;20048;-79
2021/07/13 05:13:40;;;;;;;68.40;37.85;;;18.30;99.90;;;;;;5033221;28;20050;-80
2021/07/13 05:16:06;;;;;;;62.97;35.85;;;18.30;99.90;;;;;;5035165;28;20655;-80
2021/07/13 05:18:34;;;;;;;63.83;37.30;;;18.30;99.90;;;;;;5049297;28;20032;-78
2021/07/13 05:21:04;;;;;;;64.97;37.30;;;18.30;99.90;;;;;;5032718;28;20025;-79
2021/07/13 05:23:31;;;;;;;61.13;36.95;;;18.40;99.90;;;;;;5033398;28;20037;-78
2021/07/13 05:25:57;;;;;;;62.42;34.92;;;18.40;99.90;;;;;;5032689;28;20467;-78
2021/07/13 05:28:23;;;;;;;66.50;37.28;;;18.40;99.90;;;;;;5033891;28;20030;-78
2021/07/13 05:30:50;;;;;;;68.85;37.78;;;18.30;99.90;;;;;;5047255;28;20025;-78
2021/07/13 05:33:16;;;;;;;75.15;38.92;;;18.40;99.90;;;;;;5053049;28;20049;-78
2021/07/13 05:35:43;;;;;;;75.60;38.95;;;18.40;99.90;;;;;;5038966;28;20061;-78
2021/07/13 05:38:10;;;;;;;74.75;37.65;;;18.40;99.90;;;;;;5032912;28;20030;-77
2021/07/13 05:40:36;;;;;;;73.30;38.25;;;18.40;99.90;;;;;;5042567;28;20458;-78
2021/07/13 05:43:03;;;;;;;78.75;38.83;;;18.50;99.90;;;;;;5052503;28;20382;-78
2021/07/13 05:45:29;;;;;;;78.68;41.35;;;18.50;99.90;;;;;;5034354;28;20037;-78
2021/07/13 05:47:55;;;;;;;73.95;39.13;;;18.50;99.90;;;;;;5035497;28;20060;-78
2021/07/13 05:50:22;;;;;;;74.05;40.83;;;18.50;99.90;;;;;;5033168;28;20056;-78
2021/07/13 05:52:48;;;;;;;71.25;39.28;;;18.60;99.90;;;;;;5029934;28;20056;-77
2021/07/13 05:55:14;;;;;;;76.40;41.55;;;18.50;99.90;;;;;;5032527;28;20034;-77
2021/07/13 05:57:40;;;;;;;71.22;38.78;;;18.50;99.90;;;;;;5032771;28;20026;-77
2021/07/13 06:00:09;;;;;;;66.40;36.95;;;18.50;99.90;;;;;;5032414;28;20029;-77
2021/07/13 06:02:45;;;;;;;58.17;33.85;;;18.60;99.90;;;;;;5034758;28;20139;-78
2021/07/13 06:05:12;;;;;;;45.70;29.33;;;18.50;99.90;;;;;;5050258;28;20060;-78
2021/07/13 06:07:48;;;;;;;39.60;28.75;;;18.60;99.90;;;;;;5032593;28;20038;-78
2021/07/13 06:10:16;;;;;;;39.70;28.08;;;18.60;99.90;;;;;;5032824;28;20029;-77
2021/07/13 06:12:43;;;;;;;38.63;26.77;;;18.60;99.90;;;;;;5036504;28;20055;-80
2021/07/13 06:15:10;;;;;;;40.60;27.90;;;18.60;99.90;;;;;;5041102;28;20025;-79
2021/07/13 06:17:38;;;;;;;35.15;26.95;;;18.60;99.90;;;;;;5050484;28;20040;-80
2021/07/13 06:20:05;;;;;;;31.50;24.63;;;18.60;99.90;;;;;;5038802;28;20033;-77
2021/07/13 06:22:31;;;;;;;31.80;22.77;;;18.60;99.90;;;;;;5046376;28;20036;-77
2021/07/13 06:24:57;;;;;;;29.08;23.65;;;18.60;99.90;;;;;;5018153;28;20038;-77
2021/07/13 06:27:27;;;;;;;27.30;19.48;;;18.70;99.90;;;;;;5044669;28;20025;-76
2021/07/13 06:29:53;;;;;;;23.70;19.05;;;18.70;99.90;;;;;;5044590;28;20032;-77
2021/07/13 06:32:19;;;;;;;24.08;19.30;;;18.60;99.90;;;;;;5035900;28;20419;-77
2021/07/13 06:34:45;;;;;;;25.73;20.58;;;18.60;99.90;;;;;;5035083;28;20037;-77
2021/07/13 06:37:11;;;;;;;21.65;19.40;;;18.60;99.90;;;;;;5034745;28;20033;-77
2021/07/13 06:39:38;;;;;;;24.38;20.33;;;18.60;99.90;;;;;;5036349;28;20034;-77
2021/07/13 06:42:04;;;;;;;23.75;18.95;;;18.60;99.90;;;;;;5033368;28;20418;-78
2021/07/13 06:44:31;;;;;;;25.10;18.58;;;18.60;99.90;;;;;;5030411;28;20045;-77
2021/07/13 06:46:57;;;;;;;24.58;20.63;;;18.70;99.90;;;;;;5032439;28;20054;-77
2021/07/13 06:49:23;;;;;;;25.08;19.60;;;18.70;99.90;;;;;;5032636;28;20029;-76
2021/07/13 06:51:50;;;;;;;24.60;19.63;;;18.70;99.90;;;;;;5032151;28;20056;-76
2021/07/13 06:54:16;;;;;;;23.33;20.17;;;18.70;99.90;;;;;;5032706;28;20041;-76
2021/07/13 06:56:42;;;;;;;22.45;18.90;;;18.80;99.90;;;;;;5031314;28;20045;-76
2021/07/13 06:59:08;;;;;;;29.63;20.73;;;18.80;99.90;;;;;;5032599;28;20037;-77
2021/07/13 07:01:34;;;;;;;24.75;20.90;;;18.80;99.90;;;;;;5032521;28;20037;-76
2021/07/13 07:04:01;;;;;;;23.77;20.77;;;18.80;99.90;;;;;;5032060;28;20323;-76
2021/07/13 07:06:29;;;;;;;23.48;20.75;;;18.80;99.90;;;;;;5029955;28;20372;-76
2021/07/13 07:08:56;;;;;;;23.67;20.83;;;18.80;99.90;;;;;;5031751;28;20482;-77
2021/07/13 07:11:22;;;;;;;25.67;21.30;;;18.80;99.90;;;;;;5036686;28;20029;-76
2021/07/13 07:13:49;;;;;;;23.42;20.63;;;18.90;99.90;;;;;;5050666;28;20037;-76
2021/07/13 07:16:15;;;;;;;24.50;21.85;;;18.90;99.90;;;;;;5032280;28;20470;-76
2021/07/13 07:18:42;;;;;;;24.17;21.17;;;18.90;99.90;;;;;;5033083;28;20026;-77
2021/07/13 07:21:08;;;;;;;25.98;22.50;;;18.90;99.90;;;;;;5035616;28;20033;-76
2021/07/13 07:23:35;;;;;;;26.63;22.17;;;18.90;99.90;;;;;;5036047;28;20038;-75
2021/07/13 07:26:01;;;;;;;26.55;22.52;;;18.90;99.90;;;;;;5018039;28;20033;-75
2021/07/13 07:28:28;;;;;;;28.05;22.83;;;18.80;99.90;;;;;;5035834;28;20040;-76
2021/07/13 07:30:54;;;;;;;26.80;23.83;;;18.90;99.90;;;;;;5034947;28;20072;-75
2021/07/13 07:33:21;;;;;;;31.30;23.08;;;18.80;99.90;;;;;;5014069;28;20404;-76
2021/07/13 07:35:47;;;;;;;29.45;23.17;;;18.80;99.90;;;;;;5016066;28;20041;-76
2021/07/13 07:38:13;;;;;;;26.95;22.58;;;18.80;99.90;;;;;;5016369;28;20383;-76
2021/07/13 07:40:40;;;;;;;28.38;22.70;;;18.80;99.90;;;;;;5016140;28;20029;-76
2021/07/13 07:43:06;;;;;;;27.48;23.13;;;18.90;99.90;;;;;;5015730;28;20037;-76
2021/07/13 07:45:33;;;;;;;28.98;21.85;;;18.90;99.90;;;;;;5016329;28;20098;-75
2021/07/13 07:47:59;;;;;;;26.50;22.35;;;18.80;99.90;;;;;;5015404;28;20467;-75
2021/07/13 07:50:26;;;;;;;31.13;21.73;;;18.80;99.90;;;;;;5015503;28;20464;-77
2021/07/13 07:52:53;;;;;;;23.88;20.17;;;18.80;99.90;;;;;;5015827;28;20038;-76
2021/07/13 07:55:21;;;;;;;23.90;19.85;;;18.80;99.90;;;;;;5015697;28;20026;-76
2021/07/13 07:57:48;;;;;;;23.88;20.02;;;18.80;99.90;;;;;;5022723;28;20033;-75
2021/07/13 08:00:16;;;;;;;26.05;21.70;;;18.80;99.90;;;;;;5029999;28;20495;-76
2021/07/13 08:02:44;;;;;;;24.42;19.58;;;18.80;99.90;;;;;;5031673;28;20049;-77
2021/07/13 08:05:10;;;;;;;25.30;19.48;;;18.80;99.90;;;;;;5018308;28;20038;-77
2021/07/13 08:07:37;;;;;;;22.15;19.77;;;18.80;99.90;;;;;;5026675;28;20026;-76
2021/07/13 08:10:06;;;;;;;22.27;18.10;;;18.80;99.90;;;;;;5043490;28;20006;-76
2021/07/13 08:12:32;;;;;;;22.23;18.80;;;18.80;99.90;;;;;;5046771;28;20017;-77
2021/07/13 08:14:58;;;;;;;22.48;18.92;;;18.80;99.90;;;;;;5035913;28;20037;-77
2021/07/13 08:17:25;;;;;;;21.08;18.88;;;18.80;99.90;;;;;;5014922;28;20048;-76
2021/07/13 08:19:51;;;;;;;21.05;18.77;;;18.80;99.90;;;;;;5023492;28;20026;-76
2021/07/13 08:22:17;;;;;;;21.88;19.27;;;18.80;99.90;;;;;;5015064;28;20041;-77
2021/07/13 08:24:44;;;;;;;23.02;19.40;;;18.80;99.90;;;;;;5014921;28;20045;-77
2021/07/13 08:27:10;;;;;;;22.77;19.85;;;18.90;99.90;;;;;;5014951;28;20030;-77
2021/07/13 08:29:36;;;;;;;23.95;20.60;;;18.90;99.90;;;;;;5014848;28;20053;-76
2021/07/13 08:32:04;;;;;;;28.23;21.88;;;18.90;99.90;;;;;;5022592;28;20045;-77
2021/07/13 08:34:34;;;;;;;22.80;19.77;;;19.00;99.90;;;;;;5034397;28;20460;-77
2021/07/13 08:37:02;;;;;;;22.55;20.02;;;18.90;99.90;;;;;;5034097;28;20041;-76
2021/07/13 08:39:29;;;;;;;20.45;18.27;;;18.90;99.90;;;;;;5035535;28;20033;-77
2021/07/13 08:41:55;;;;;;;24.45;19.23;;;18.80;99.90;;;;;;5039685;28;20033;-76
2021/07/13 08:44:21;;;;;;;22.65;19.05;;;18.90;99.90;;;;;;5034232;28;20056;-77
2021/07/13 08:46:48;;;;;;;20.85;18.65;;;18.90;99.90;;;;;;5033739;28;20037;-77
2021/07/13 08:49:14;;;;;;;19.88;17.88;;;18.80;99.90;;;;;;5040749;28;20041;-76
2021/07/13 08:51:41;;;;;;;23.42;19.75;;;18.80;99.90;;;;;;5039392;28;20446;-76
2021/07/13 08:54:11;;;;;;;19.60;17.50;;;18.90;99.90;;;;;;5039946;28;20041;-77
2021/07/13 08:56:38;;;;;;;23.42;18.92;;;18.80;99.90;;;;;;5050759;28;20041;-77
2021/07/13 08:59:05;;;;;;;22.15;19.08;;;18.90;99.90;;;;;;5038532;28;20029;-76
2021/07/13 09:01:32;;;;;;;22.02;19.25;;;18.80;99.90;;;;;;5054868;28;20049;-77
2021/07/13 09:04:07;;;;;;;21.42;18.67;;;18.80;99.90;;;;;;5038879;28;20394;-76
2021/07/13 09:06:53;;;;;;;22.88;18.75;;;18.80;99.90;;;;;;5034345;28;20041;-77
2021/07/13 09:09:26;;;;;;;24.67;19.73;;;18.80;99.90;;;;;;5034816;28;20025;-77
2021/07/13 09:12:16;;;;;;;21.05;18.55;;;18.80;99.90;;;;;;5034289;28;20040;-76
2021/07/13 09:14:55;;;;;;;25.92;19.92;;;18.80;99.90;;;;;;5034042;28;20038;-77
2021/07/13 09:17:29;;;;;;;22.47;20.10;;;18.80;99.90;;;;;;5033945;28;20375;-75
2021/07/13 09:20:16;;;;;;;23.30;20.13;;;18.80;99.90;;;;;;5016262;28;20037;-76
2021/07/13 09:22:56;;;;;;;24.63;20.35;;;18.80;99.90;;;;;;5034239;28;20378;-76
2021/07/13 09:25:37;;;;;;;27.40;22.83;;;18.90;99.90;;;;;;5037651;28;20033;-78
2021/07/13 09:28:18;;;;;;;28.35;22.35;;;18.90;99.90;;;;;;5046763;28;20030;-79
2021/07/13 09:30:53;;;;;;;31.85;23.00;;;18.90;99.90;;;;;;5048074;28;20030;-79
2021/07/13 09:33:47;;;;;;;28.17;22.42;;;18.80;99.90;;;;;;5028552;28;20064;-80
2021/07/13 09:36:15;;;;;;;30.15;23.75;;;18.80;99.90;;;;;;5031704;28;20037;-79
2021/07/13 09:38:54;;;;;;;28.52;22.05;;;18.70;99.90;;;;;;5031827;28;20049;-78
2021/07/13 09:41:28;;;;;;;27.85;20.98;;;18.70;99.90;;;;;;5033835;28;20451;-78
2021/07/13 09:44:10;;;;;;;27.58;21.25;;;18.70;99.90;;;;;;5034024;28;20033;-77
2021/07/13 09:46:39;;;;;;;24.10;19.27;;;18.70;99.90;;;;;;5031705;28;20378;-76
2021/07/13 09:49:21;;;;;;;25.15;19.27;;;18.70;99.90;;;;;;5015676;28;20483;-78
2021/07/13 09:51:58;;;;;;;26.50;21.27;;;18.70;99.90;;;;;;5033591;28;20041;-77
2021/07/13 09:54:36;;;;;;;31.52;21.27;;;18.70;99.90;;;;;;5033429;28;20045;-78
2021/07/13 09:57:06;;;;;;;26.02;20.45;;;18.80;99.90;;;;;;5032772;28;20029;-77
2021/07/13 09:59:33;;;;;;;26.45;19.63;;;18.70;99.90;;;;;;5017040;28;20040;-77
2021/07/13 10:02:04;;;;;;;27.65;21.55;;;18.70;99.90;;;;;;5033548;28;20056;-77
2021/07/13 10:04:34;;;;;;;30.85;23.02;;;18.80;99.90;;;;;;5034171;28;20056;-77
2021/07/13 10:07:06;;;;;;;28.38;21.88;;;18.80;99.90;;;;;;5037087;28;20378;-76
2021/07/13 10:09:36;;;;;;;30.83;22.17;;;18.80;99.90;;;;;;5037263;28;20037;-77
2021/07/13 10:12:09;;;;;;;25.23;20.65;;;18.80;99.90;;;;;;5030202;28;20034;-77
2021/07/13 10:14:39;;;;;;;28.10;21.75;;;18.80;99.90;;;;;;5015671;28;20045;-77
2021/07/13 10:17:07;;;;;;;30.77;23.13;;;18.70;99.90;;;;;;5032172;28;20036;-76
2021/07/13 10:19:38;;;;;;;31.70;23.20;;;18.80;99.90;;;;;;5032456;28;20037;-76
2021/07/13 10:22:05;;;;;;;31.98;25.05;;;18.80;99.90;;;;;;5032265;28;20029;-76
2021/07/13 10:24:33;;;;;;;28.23;22.48;;;19.00;99.90;;;;;;5032142;28;20478;-77
2021/07/13 10:26:59;;;;;;;29.17;22.70;;;19.00;99.90;;;;;;4998275;28;20044;-77
2021/07/13 10:29:32;;;;;;;22.67;19.45;;;19.00;99.90;;;;;;5034623;28;20044;-76
2021/07/13 10:32:07;;;;;;;21.88;18.92;;;19.20;99.90;;;;;;5040172;28;20046;-77
2021/07/13 10:34:53;;;;;;;23.20;19.38;;;19.30;99.90;;;;;;5038902;28;20061;-77
2021/07/13 10:37:30;;;;;;;21.27;18.98;;;19.40;99.90;;;;;;5042872;28;20406;-76
2021/07/13 10:40:02;;;;;;;19.88;17.17;;;19.40;99.90;;;;;;5034544;28;20030;-76
2021/07/13 10:42:45;;;;;;;22.23;17.30;;;19.30;99.90;;;;;;5036527;28;20364;-77
2021/07/13 10:45:17;;;;;;;23.27;17.23;;;19.00;99.90;;;;;;5032390;28;20041;-76
2021/07/13 10:48:04;;;;;;;19.58;15.65;;;19.00;99.90;;;;;;5046095;28;20296;-77
2021/07/13 10:50:30;;;;;;;18.05;14.05;;;19.00;99.90;;;;;;5048799;28;21828;-77
2021/07/13 10:53:06;;;;;;;18.80;12.75;;;18.90;99.90;;;;;;5038317;28;20462;-76
2021/07/13 10:55:35;;;;;;;21.63;12.63;;;18.80;99.90;;;;;;5053522;28;20505;-82
2021/07/13 10:58:31;;;;;;;10.35;3.40;;;18.60;99.90;;;;;;5043704;28;20029;-84
2021/07/13 11:01:32;;;;;;;9.65;1.23;;;17.60;99.90;;;;;;5009452;28;20395;-79
2021/07/13 11:04:03;;;;;;;5.75;0.95;;;16.80;99.90;;;;;;5046220;28;20045;-84
2021/07/13 11:06:41;;;;;;;7.00;1.50;;;16.30;99.90;;;;;;5040658;28;20021;-77
2021/07/13 11:09:24;;;;;;;6.03;1.02;;;16.10;99.90;;;;;;5036291;28;20121;-79
2021/07/13 11:11:52;;;;;;;3.22;1.38;;;16.00;99.90;;;;;;5037146;28;20028;-79
2021/07/13 11:14:19;;;;;;;2.92;1.08;;;15.90;99.90;;;;;;5036877;28;20029;-81
2021/07/13 11:16:50;;;;;;;5.22;1.10;;;15.90;99.90;;;;;;5037674;28;20025;-82
2021/07/13 11:19:17;;;;;;;2.45;0.82;;;15.90;99.90;;;;;;5051196;28;20033;-86
2021/07/13 11:21:48;;;;;;;3.22;1.60;;;15.90;99.90;;;;;;5026233;28;20041;-85
2021/07/13 11:24:26;;;;;;;2.13;1.05;;;15.80;99.90;;;;;;5036985;28;20029;-81
2021/07/13 11:26:57;;;;;;;1.63;0.70;;;15.70;99.90;;;;;;5036648;28;20363;-81
2021/07/13 11:29:29;;;;;;;1.63;0.88;;;15.70;99.90;;;;;;5037374;28;20033;-83
2021/07/13 11:31:58;;;;;;;1.20;0.80;;;15.70;99.90;;;;;;5037167;28;20050;-82
2021/07/13 11:34:29;;;;;;;2.03;0.93;;;15.80;99.90;;;;;;5036317;28;20471;-82
2021/07/13 11:36:58;;;;;;;2.10;0.73;;;15.70;99.90;;;;;;5036136;28;20026;-82
2021/07/13 11:39:30;;;;;;;1.88;0.68;;;15.90;99.90;;;;;;5035996;28;20028;-82
2021/07/13 11:42:03;;;;;;;2.97;0.85;;;15.90;99.90;;;;;;5036144;28;20038;-80
2021/07/13 11:44:30;;;;;;;2.45;1.10;;;16.00;99.90;;;;;;5037050;28;20042;-81
2021/07/13 11:46:56;;;;;;;3.45;1.33;;;16.10;99.90;;;;;;5052360;28;20044;-81
2021/07/13 11:49:25;;;;;;;4.38;1.60;;;16.20;99.90;;;;;;5045756;28;20044;-84
2021/07/13 11:52:05;;;;;;;4.80;1.55;;;16.20;99.90;;;;;;5049448;28;20029;-82
2021/07/13 11:54:34;;;;;;;4.00;1.40;;;16.20;99.90;;;;;;5036066;28;20395;-84
2021/07/13 11:57:03;;;;;;;5.07;1.75;;;16.20;99.90;;;;;;5035706;28;20045;-81
2021/07/13 11:59:31;;;;;;;5.25;1.38;;;16.40;99.90;;;;;;5035330;28;20383;-81
2021/07/13 12:02:07;;;;;;;5.22;1.60;;;16.70;99.90;;;;;;5035067;28;20476;-79
2021/07/13 12:04:41;;;;;;;2.95;1.52;;;17.00;99.90;;;;;;5037272;28;20475;-82
2021/07/13 12:07:08;;;;;;;3.60;2.00;;;17.00;99.90;;;;;;5035213;28;20037;-81
2021/07/13 12:09:37;;;;;;;5.22;2.40;;;17.00;99.90;;;;;;5035348;28;20408;-82
2021/07/13 12:12:14;;;;;;;4.47;2.45;;;16.90;99.90;;;;;;5034402;28;20041;-82
2021/07/13 12:14:43;;;;;;;2.60;1.35;;;16.90;99.90;;;;;;5034887;28;20057;-82
2021/07/13 12:17:10;;;;;;;2.33;1.27;;;16.60;99.90;;;;;;5033434;28;20045;-84
2021/07/13 12:19:38;;;;;;;3.75;1.75;;;16.50;99.90;;;;;;5036248;28;20386;-82
2021/07/13 12:22:08;;;;;;;2.70;1.00;;;16.40;99.90;;;;;;5035523;28;20029;-85
2021/07/13 12:24:46;;;;;;;3.13;1.00;;;16.40;99.90;;;;;;5035309;28;20473;-84
2021/07/13 12:27:15;;;;;;;4.50;1.48;;;16.40;99.90;;;;;;5034814;28;20036;-85
2021/07/13 12:29:43;;;;;;;5.88;1.48;;;16.40;99.90;;;;;;5022993;28;20038;-85
2021/07/13 12:32:20;;;;;;;2.45;1.20;;;16.50;99.90;;;;;;5034563;28;20387;-83
2021/07/13 12:34:49;;;;;;;4.45;0.88;;;16.60;99.90;;;;;;5036973;28;20053;-85
2021/07/13 12:37:19;;;;;;;3.45;1.00;;;16.60;99.90;;;;;;5049603;28;20236;-86
2021/07/13 12:39:51;;;;;;;1.85;0.73;;;16.60;99.90;;;;;;5039725;28;20044;-84
2021/07/13 12:42:23;;;;;;;3.47;0.70;;;16.60;99.90;;;;;;5034848;28;20036;-84